Wetterdaten: Woche 17.12.07 - 23.12.07 (KW51)
Datum Zeit Temperatur Luftfeuchte Luftdruck Niederschlag Wind Richtung Sonnenschein Solar Taupunkt Windchill Windben
17.12.2007 00:00 -0.3 C 69 % 1031.3 hPa 0.0 l/m 5.5 km/h (1 Bft) O 0.00 h 0 W/m -5.3 C -1.8 C 11.3 km/h (2 Bft)
17.12.2007 01:00 -0.4 C 69 % 1030.8 hPa 0.0 l/m 6.8 km/h (2 Bft) O-SO 0.00 h 0 W/m -5.4 C -2.4 C 13.8 km/h (3 Bft)
17.12.2007 02:00 -0.4 C 69 % 1030.8 hPa 0.0 l/m 7.6 km/h (2 Bft) O-SO 0.00 h 0 W/m -5.4 C -2.8 C 14.6 km/h (3 Bft)
17.12.2007 03:00 -0.6 C 70 % 1030.9 hPa 0.0 l/m 6.3 km/h (2 Bft) O-SO 0.00 h 0 W/m -5.5 C -2.5 C 12.1 km/h (2 Bft)
17.12.2007 04:00 -0.8 C 70 % 1030.6 hPa 0.0 l/m 5.0 km/h (1 Bft) O 0.00 h 0 W/m -5.5 C -2.1 C 10.0 km/h (2 Bft)
17.12.2007 05:00 -0.9 C 71 % 1030.4 hPa 0.0 l/m 5.7 km/h (1 Bft) O-SO 0.00 h 0 W/m -5.5 C -2.6 C 11.2 km/h (2 Bft)
17.12.2007 06:00 -1.1 C 71 % 1030.2 hPa 0.0 l/m 6.0 km/h (2 Bft) O-SO 0.00 h 0 W/m -5.7 C -3.0 C 11.8 km/h (2 Bft)
17.12.2007 07:00 -1.2 C 71 % 1030.1 hPa 0.0 l/m 6.6 km/h (2 Bft) O-SO 0.00 h 0 W/m -5.8 C -3.2 C 12.2 km/h (2 Bft)
17.12.2007 08:00 -1.2 C 72 % 1029.9 hPa 0.0 l/m 5.7 km/h (1 Bft) O-SO 0.00 h 6 W/m -5.6 C -2.9 C 11.6 km/h (2 Bft)
17.12.2007 09:00 -1.1 C 70 % 1029.7 hPa 0.0 l/m 5.3 km/h (1 Bft) O-SO 0.00 h 14 W/m -5.9 C -2.5 C 11.2 km/h (2 Bft)
17.12.2007 10:00 -0.9 C 70 % 1029.7 hPa 0.0 l/m 6.3 km/h (2 Bft) O-SO 0.00 h 25 W/m -5.8 C -2.8 C 12.5 km/h (3 Bft)
17.12.2007 11:00 -0.8 C 69 % 1029.2 hPa 0.0 l/m 6.7 km/h (2 Bft) O-SO 0.00 h 33 W/m -5.7 C -2.8 C 13.1 km/h (3 Bft)
17.12.2007 12:00 -0.6 C 69 % 1028.9 hPa 0.0 l/m 5.1 km/h (1 Bft) O 0.00 h 39 W/m -5.5 C -2.0 C 10.3 km/h (2 Bft)
17.12.2007 13:00 -0.4 C 68 % 1028.6 hPa 0.0 l/m 5.7 km/h (1 Bft) O 0.00 h 54 W/m -5.6 C -1.9 C 11.3 km/h (2 Bft)
17.12.2007 14:00 -0.2 C 66 % 1028.6 hPa 0.0 l/m 7.4 km/h (2 Bft) O-SO 0.00 h 42 W/m -5.7 C -2.5 C 14.4 km/h (3 Bft)
17.12.2007 15:00 -0.1 C 65 % 1029.4 hPa 0.0 l/m 6.6 km/h (2 Bft) O 0.08 h 34 W/m -5.9 C -2.1 C 13.2 km/h (3 Bft)
17.12.2007 16:00 -0.4 C 66 % 1029.3 hPa 0.0 l/m 5.9 km/h (2 Bft) O 0.07 h 14 W/m -6.0 C -2.0 C 11.5 km/h (2 Bft)
17.12.2007 17:00 -0.7 C 67 % 1029.8 hPa 0.0 l/m 4.5 km/h (1 Bft) NO 0.00 h 0 W/m -6.1 C -1.8 C 8.8 km/h (2 Bft)
17.12.2007 18:00 -1.1 C 68 % 1030.5 hPa 0.0 l/m 5.0 km/h (1 Bft) N 0.00 h 0 W/m -6.2 C -2.3 C 9.7 km/h (2 Bft)
17.12.2007 19:00 -1.5 C 69 % 1031.0 hPa 0.0 l/m 3.4 km/h (1 Bft) O 0.00 h 0 W/m -6.4 C -2.2 C 7.0 km/h (2 Bft)
17.12.2007 20:00 -1.9 C 72 % 1031.6 hPa 0.0 l/m 2.5 km/h (1 Bft) O 0.00 h 0 W/m -6.3 C -2.3 C 5.2 km/h (1 Bft)
17.12.2007 21:00 -2.2 C 73 % 1032.1 hPa 0.0 l/m 2.7 km/h (1 Bft) O-SO 0.00 h 0 W/m -6.4 C -2.6 C 5.5 km/h (1 Bft)
17.12.2007 22:00 -2.4 C 74 % 1032.5 hPa 0.0 l/m 1.2 km/h (1 Bft) N 0.00 h 0 W/m -6.4 C -2.5 C 3.0 km/h (1 Bft)
17.12.2007 23:00 -2.9 C 76 % 1032.9 hPa 0.0 l/m 0.6 km/h (0 Bft) O-SO 0.00 h 0 W/m -6.6 C -2.9 C 2.0 km/h (1 Bft)
18.12.2007 00:00 -2.8 C 76 % 1033.1 hPa 0.0 l/m 2.6 km/h (1 Bft) N-NO 0.00 h 0 W/m -6.4 C -3.4 C 5.6 km/h (1 Bft)
18.12.2007 01:00 -2.6 C 76 % 1032.8 hPa 0.0 l/m 2.7 km/h (1 Bft) N 0.00 h 0 W/m -6.3 C -2.9 C 5.5 km/h (1 Bft)
18.12.2007 02:00 -2.5 C 76 % 1032.9 hPa 0.0 l/m 3.3 km/h (1 Bft) NO 0.00 h 0 W/m -6.2 C -3.3 C 6.6 km/h (2 Bft)
18.12.2007 03:00 -2.4 C 76 % 1032.9 hPa 0.0 l/m 3.1 km/h (1 Bft) O 0.00 h 0 W/m -6.1 C -2.9 C 6.0 km/h (2 Bft)
18.12.2007 04:00 -2.4 C 75 % 1033.0 hPa 0.0 l/m 1.8 km/h (1 Bft) NO 0.00 h 0 W/m -6.2 C -2.6 C 4.4 km/h (1 Bft)
18.12.2007 05:00 -2.5 C 75 % 1033.1 hPa 0.0 l/m 2.8 km/h (1 Bft) NO 0.00 h 0 W/m -6.3 C -2.9 C 5.9 km/h (2 Bft)
18.12.2007 06:00 -2.6 C 75 % 1033.1 hPa 0.0 l/m 2.3 km/h (1 Bft) NO 0.00 h 0 W/m -6.4 C -2.8 C 5.2 km/h (1 Bft)
18.12.2007 07:00 -2.6 C 76 % 1033.2 hPa 0.0 l/m 1.6 km/h (1 Bft) O 0.00 h 0 W/m -6.3 C -2.6 C 3.9 km/h (1 Bft)
18.12.2007 08:00 -2.6 C 76 % 1033.3 hPa 0.0 l/m 1.6 km/h (1 Bft) O-NO 0.00 h 9 W/m -6.2 C -2.6 C 4.0 km/h (1 Bft)
18.12.2007 09:00 -2.5 C 77 % 1033.4 hPa 0.0 l/m 2.0 km/h (1 Bft) O-SO 0.00 h 21 W/m -6.0 C -2.7 C 4.5 km/h (1 Bft)
18.12.2007 10:00 -2.2 C 76 % 1033.7 hPa 0.0 l/m 3.1 km/h (1 Bft) O 0.00 h 34 W/m -6.0 C -2.8 C 6.8 km/h (2 Bft)
18.12.2007 11:00 -2.2 C 75 % 1033.6 hPa 0.0 l/m 3.3 km/h (1 Bft) O-NO 0.00 h 44 W/m -6.0 C -2.7 C 7.3 km/h (2 Bft)
18.12.2007 12:00 -2.3 C 75 % 1033.5 hPa 0.0 l/m 2.8 km/h (1 Bft) O 0.00 h 47 W/m -6.2 C -2.9 C 6.5 km/h (2 Bft)
18.12.2007 13:00 -2.4 C 76 % 1033.3 hPa 0.0 l/m 3.6 km/h (1 Bft) O-NO 0.00 h 46 W/m -5.9 C -3.3 C 6.9 km/h (2 Bft)
18.12.2007 14:00 -2.4 C 77 % 1033.2 hPa 0.0 l/m 2.4 km/h (1 Bft) O-SO 0.00 h 32 W/m -6.0 C -2.7 C 5.2 km/h (1 Bft)
18.12.2007 15:00 -2.3 C 75 % 1033.6 hPa 0.0 l/m 5.4 km/h (1 Bft) O-SO 0.00 h 16 W/m -6.1 C -4.0 C 9.0 km/h (2 Bft)
18.12.2007 16:00 -2.3 C 74 % 1033.8 hPa 0.0 l/m 3.9 km/h (1 Bft) O 0.00 h 6 W/m -6.2 C -3.2 C 7.9 km/h (2 Bft)
18.12.2007 17:00 -2.1 C 73 % 1034.2 hPa 0.0 l/m 2.8 km/h (1 Bft) O-SO 0.00 h 0 W/m -6.3 C -2.5 C 6.4 km/h (2 Bft)
18.12.2007 18:00 -2.2 C 73 % 1034.3 hPa 0.0 l/m 2.2 km/h (1 Bft) O-NO 0.00 h 0 W/m -6.3 C -2.4 C 5.1 km/h (1 Bft)
18.12.2007 19:00 -2.3 C 73 % 1034.4 hPa 0.0 l/m 2.5 km/h (1 Bft) O-SO 0.00 h 0 W/m -6.4 C -2.7 C 5.2 km/h (1 Bft)
18.12.2007 20:00 -2.3 C 75 % 1034.6 hPa 0.0 l/m 1.8 km/h (1 Bft) O-SO 0.00 h 0 W/m -6.2 C -2.5 C 3.7 km/h (1 Bft)
18.12.2007 21:00 -2.3 C 75 % 1035.2 hPa 0.0 l/m 2.2 km/h (1 Bft) O-SO 0.00 h 0 W/m -6.0 C -2.7 C 4.9 km/h (1 Bft)
18.12.2007 22:00 -2.2 C 74 % 1035.7 hPa 0.0 l/m 2.1 km/h (1 Bft) O 0.00 h 0 W/m -6.2 C -2.6 C 4.7 km/h (1 Bft)
18.12.2007 23:00 -2.1 C 73 % 1036.0 hPa 0.0 l/m 2.2 km/h (1 Bft) O 0.00 h 0 W/m -6.2 C -2.4 C 4.6 km/h (1 Bft)
19.12.2007 00:00 -2.1 C 74 % 1036.3 hPa 0.0 l/m 2.7 km/h (1 Bft) O-SO 0.00 h 0 W/m -6.1 C -2.7 C 4.8 km/h (1 Bft)
19.12.2007 01:00 -2.2 C 75 % 1036.4 hPa 0.0 l/m 3.1 km/h (1 Bft) SO 0.00 h 0 W/m -6.0 C -2.8 C 5.1 km/h (1 Bft)
19.12.2007 02:00 -2.3 C 75 % 1036.7 hPa 0.0 l/m 2.9 km/h (1 Bft) O-SO 0.00 h 0 W/m -6.0 C -2.8 C 5.0 km/h (1 Bft)
19.12.2007 03:00 -2.3 C 76 % 1037.2 hPa 0.0 l/m 3.5 km/h (1 Bft) SO 0.00 h 0 W/m -5.9 C -3.0 C 6.1 km/h (2 Bft)
19.12.2007 04:00 -2.4 C 76 % 1037.6 hPa 0.0 l/m 5.6 km/h (1 Bft) SO 0.00 h 0 W/m -6.1 C -4.4 C 8.2 km/h (2 Bft)
19.12.2007 05:00 -2.7 C 76 % 1038.0 hPa 0.0 l/m 1.4 km/h (1 Bft) SO 0.00 h 0 W/m -6.4 C -2.9 C 3.0 km/h (1 Bft)
19.12.2007 06:00 -2.8 C 77 % 1038.5 hPa 0.0 l/m 2.6 km/h (1 Bft) SO 0.00 h 0 W/m -6.3 C -3.2 C 4.7 km/h (1 Bft)
19.12.2007 07:00 -3.1 C 78 % 1039.1 hPa 0.0 l/m 2.8 km/h (1 Bft) SO 0.00 h 0 W/m -6.4 C -3.6 C 5.1 km/h (1 Bft)
19.12.2007 08:00 -3.2 C 79 % 1039.7 hPa 0.0 l/m 1.5 km/h (1 Bft) SO 0.00 h 11 W/m -6.4 C -3.4 C 3.2 km/h (1 Bft)
19.12.2007 09:00 -3.0 C 79 % 1040.3 hPa 0.0 l/m 1.5 km/h (1 Bft) S-SO 0.00 h 34 W/m -6.2 C -3.2 C 3.0 km/h (1 Bft)
19.12.2007 10:00 -2.9 C 78 % 1040.6 hPa 0.0 l/m 1.5 km/h (1 Bft) O 0.00 h 66 W/m -6.2 C -3.1 C 3.2 km/h (1 Bft)
19.12.2007 11:00 -2.4 C 76 % 1040.5 hPa 0.0 l/m 1.3 km/h (1 Bft) NO 0.00 h 96 W/m -5.9 C -2.4 C 3.3 km/h (1 Bft)
19.12.2007 12:00 -2.0 C 75 % 1040.3 hPa 0.0 l/m 1.3 km/h (1 Bft) O-NO 0.00 h 124 W/m -5.8 C -2.1 C 3.4 km/h (1 Bft)
19.12.2007 13:00 -1.7 C 74 % 1039.8 hPa 0.0 l/m 1.1 km/h (0 Bft) O 0.48 h 155 W/m -5.7 C -1.7 C 3.2 km/h (1 Bft)
19.12.2007 14:00 -1.4 C 74 % 1039.6 hPa 0.0 l/m 3.1 km/h (1 Bft) O-SO 0.60 h 130 W/m -5.4 C -2.0 C 5.2 km/h (1 Bft)
19.12.2007 15:00 -1.6 C 75 % 1039.5 hPa 0.0 l/m 2.5 km/h (1 Bft) O-SO 0.17 h 63 W/m -5.4 C -1.9 C 4.4 km/h (1 Bft)
19.12.2007 16:00 -2.2 C 77 % 1039.8 hPa 0.0 l/m 6.0 km/h (2 Bft) O-SO 0.05 h 14 W/m -5.6 C -4.3 C 8.2 km/h (2 Bft)
19.12.2007 17:00 -3.0 C 80 % 1040.0 hPa 0.0 l/m 4.0 km/h (1 Bft) O-SO 0.00 h 0 W/m -6.0 C -4.6 C 5.6 km/h (1 Bft)
19.12.2007 18:00 -3.5 C 82 % 1040.4 hPa 0.0 l/m 1.6 km/h (1 Bft) O-SO 0.00 h 0 W/m -6.2 C -3.7 C 2.6 km/h (1 Bft)
19.12.2007 19:00 -4.0 C 83 % 1040.5 hPa 0.0 l/m 0.4 km/h (0 Bft) O-SO 0.00 h 0 W/m -6.5 C -4.0 C 1.0 km/h (0 Bft)
19.12.2007 20:00 -4.7 C 86 % 1040.6 hPa 0.0 l/m 0.7 km/h (0 Bft) O-SO 0.00 h 0 W/m -6.8 C -4.7 C 1.6 km/h (1 Bft)
19.12.2007 21:00 -5.4 C 87 % 1040.6 hPa 0.0 l/m 2.0 km/h (1 Bft) O-SO 0.00 h 0 W/m -7.1 C -5.5 C 3.2 km/h (1 Bft)
19.12.2007 22:00 -5.8 C 89 % 1040.4 hPa 0.0 l/m 0.5 km/h (0 Bft) O-SO 0.00 h 0 W/m -7.3 C -5.8 C 1.3 km/h (1 Bft)
19.12.2007 23:00 -6.2 C 89 % 1040.2 hPa 0.0 l/m 0.0 km/h (0 Bft) N 0.00 h 0 W/m -7.7 C -6.2 C 0.0 km/h (0 Bft)
20.12.2007 00:00 -6.6 C 90 % 1040.1 hPa 0.0 l/m 0.3 km/h (0 Bft) O-SO 0.00 h 0 W/m -8.0 C -6.6 C 0.7 km/h (0 Bft)
20.12.2007 01:00 -6.3 C 91 % 1039.8 hPa 0.0 l/m 0.1 km/h (0 Bft) O-SO 0.00 h 0 W/m -7.5 C -6.3 C 0.5 km/h (0 Bft)
20.12.2007 02:00 -5.4 C 92 % 1039.5 hPa 0.0 l/m 0.2 km/h (0 Bft) O-SO 0.00 h 0 W/m -6.5 C -5.4 C 0.7 km/h (0 Bft)
20.12.2007 03:00 -4.8 C 93 % 1039.1 hPa 0.0 l/m 0.0 km/h (0 Bft) N 0.00 h 0 W/m -5.8 C -4.8 C 0.6 km/h (0 Bft)
20.12.2007 04:00 -4.5 C 93 % 1038.8 hPa 0.0 l/m 0.0 km/h (0 Bft) N 0.00 h 0 W/m -5.5 C -4.5 C 0.0 km/h (0 Bft)
20.12.2007 05:00 -4.2 C 93 % 1038.5 hPa 0.0 l/m 0.0 km/h (0 Bft) O-SO 0.00 h 0 W/m -5.2 C -4.2 C 0.3 km/h (0 Bft)
20.12.2007 06:00 -4.0 C 91 % 1038.4 hPa 0.0 l/m 0.1 km/h (0 Bft) O-SO 0.00 h 0 W/m -5.2 C -4.0 C 0.6 km/h (0 Bft)
20.12.2007 07:00 -3.8 C 90 % 1038.5 hPa 0.0 l/m 0.0 km/h (0 Bft) N 0.00 h 0 W/m -5.2 C -3.8 C 0.1 km/h (0 Bft)
20.12.2007 08:00 -3.8 C 89 % 1038.6 hPa 0.0 l/m 0.7 km/h (0 Bft) O-SO 0.00 h 9 W/m -5.2 C -3.8 C 1.6 km/h (1 Bft)
20.12.2007 09:00 -3.6 C 89 % 1039.0 hPa 0.0 l/m 0.2 km/h (0 Bft) SO 0.00 h 26 W/m -5.1 C -3.6 C 0.7 km/h (0 Bft)
20.12.2007 10:00 -3.3 C 88 % 1039.0 hPa 0.0 l/m 2.6 km/h (1 Bft) SO 0.00 h 49 W/m -5.0 C -3.7 C 4.8 km/h (1 Bft)
20.12.2007 11:00 -3.0 C 86 % 1038.6 hPa 0.0 l/m 1.8 km/h (1 Bft) SO 0.00 h 69 W/m -4.9 C -3.2 C 3.9 km/h (1 Bft)
20.12.2007 12:00 -2.9 C 86 % 1038.1 hPa 0.0 l/m 1.6 km/h (1 Bft) O-SO 0.00 h 81 W/m -4.9 C -2.9 C 3.4 km/h (1 Bft)
20.12.2007 13:00 -2.6 C 85 % 1037.4 hPa 0.0 l/m 0.7 km/h (0 Bft) O 0.00 h 88 W/m -4.8 C -2.6 C 2.5 km/h (1 Bft)
20.12.2007 14:00 -2.3 C 84 % 1036.6 hPa 0.0 l/m 0.7 km/h (0 Bft) O 0.00 h 51 W/m -4.7 C -2.3 C 2.7 km/h (1 Bft)
20.12.2007 15:00 -2.2 C 83 % 1036.2 hPa 0.0 l/m 1.0 km/h (0 Bft) O 0.00 h 26 W/m -4.7 C -2.3 C 2.9 km/h (1 Bft)
20.12.2007 16:00 -2.5 C 84 % 1036.0 hPa 0.0 l/m 3.2 km/h (1 Bft) O-SO 0.00 h 9 W/m -4.7 C -2.8 C 5.4 km/h (1 Bft)
20.12.2007 17:00 -2.7 C 86 % 1035.9 hPa 0.0 l/m 3.9 km/h (1 Bft) O-SO 0.00 h 0 W/m -4.8 C -3.6 C 6.0 km/h (2 Bft)
20.12.2007 18:00 -2.9 C 87 % 1035.6 hPa 0.0 l/m 4.7 km/h (1 Bft) O-SO 0.00 h 0 W/m -4.8 C -4.3 C 6.7 km/h (2 Bft)
20.12.2007 19:00 -3.4 C 87 % 1035.7 hPa 0.0 l/m 5.8 km/h (2 Bft) O-SO 0.00 h 0 W/m -5.2 C -5.5 C 8.1 km/h (2 Bft)
20.12.2007 20:00 -3.7 C 88 % 1035.6 hPa 0.0 l/m 1.4 km/h (1 Bft) O 0.00 h 0 W/m -5.4 C -3.8 C 3.1 km/h (1 Bft)
20.12.2007 21:00 -3.7 C 89 % 1035.6 hPa 0.0 l/m 0.9 km/h (0 Bft) O-SO 0.00 h 0 W/m -5.3 C -3.7 C 2.3 km/h (1 Bft)
20.12.2007 22:00 -3.9 C 89 % 1035.3 hPa 0.0 l/m 0.9 km/h (0 Bft) O 0.00 h 0 W/m -5.4 C -3.9 C 2.7 km/h (1 Bft)
20.12.2007 23:00 -4.1 C 90 % 1035.0 hPa 0.0 l/m 2.2 km/h (1 Bft) O-SO 0.00 h 0 W/m -5.5 C -4.6 C 3.9 km/h (1 Bft)
21.12.2007 00:00 -4.2 C 90 % 1034.7 hPa 0.0 l/m 4.0 km/h (1 Bft) O-SO 0.00 h 0 W/m -5.5 C -5.1 C 6.3 km/h (2 Bft)
21.12.2007 01:00 -4.1 C 90 % 1034.4 hPa 0.0 l/m 4.5 km/h (1 Bft) O-SO 0.00 h 0 W/m -5.4 C -5.4 C 6.8 km/h (2 Bft)
21.12.2007 02:00 -4.0 C 90 % 1034.1 hPa 0.0 l/m 2.4 km/h (1 Bft) O-SO 0.00 h 0 W/m -5.4 C -4.2 C 4.7 km/h (1 Bft)
21.12.2007 03:00 -3.8 C 90 % 1033.8 hPa 0.0 l/m 1.8 km/h (1 Bft) O-SO 0.00 h 0 W/m -5.2 C -4.0 C 3.2 km/h (1 Bft)
21.12.2007 04:00 -3.7 C 90 % 1033.4 hPa 0.0 l/m 2.9 km/h (1 Bft) O-SO 0.00 h 0 W/m -5.1 C -4.0 C 4.8 km/h (1 Bft)
21.12.2007 05:00 -3.7 C 90 % 1033.2 hPa 0.0 l/m 2.7 km/h (1 Bft) O-SO 0.00 h 0 W/m -5.1 C -4.0 C 4.5 km/h (1 Bft)
21.12.2007 06:00 -3.6 C 90 % 1033.2 hPa 0.0 l/m 1.1 km/h (1 Bft) SO 0.00 h 0 W/m -5.0 C -3.7 C 2.7 km/h (1 Bft)
21.12.2007 07:00 -3.7 C 90 % 1033.2 hPa 0.0 l/m 1.0 km/h (0 Bft) S-SW 0.00 h 0 W/m -5.0 C -3.7 C 2.7 km/h (1 Bft)
21.12.2007 08:00 -3.6 C 90 % 1033.3 hPa 0.0 l/m 1.0 km/h (0 Bft) S-SO 0.00 h 8 W/m -5.1 C -3.6 C 2.7 km/h (1 Bft)
21.12.2007 09:00 -3.4 C 89 % 1033.4 hPa 0.0 l/m 1.0 km/h (0 Bft) SW 0.00 h 24 W/m -5.0 C -3.4 C 3.0 km/h (1 Bft)
21.12.2007 10:00 -3.3 C 87 % 1033.4 hPa 0.0 l/m 2.0 km/h (1 Bft) S-SO 0.00 h 49 W/m -5.1 C -3.5 C 3.8 km/h (1 Bft)
21.12.2007 11:00 -3.0 C 87 % 1033.0 hPa 0.0 l/m 1.2 km/h (1 Bft) SO 0.00 h 72 W/m -4.9 C -3.1 C 2.9 km/h (1 Bft)
21.12.2007 12:00 -2.5 C 84 % 1032.5 hPa 0.0 l/m 0.5 km/h (0 Bft) S 0.00 h 99 W/m -4.8 C -2.5 C 2.1 km/h (1 Bft)
21.12.2007 13:00 -2.2 C 83 % 1031.9 hPa 0.0 l/m 0.7 km/h (0 Bft) S-SO 0.00 h 103 W/m -4.7 C -2.2 C 2.2 km/h (1 Bft)
21.12.2007 14:00 -2.0 C 82 % 1031.3 hPa 0.0 l/m 1.3 km/h (1 Bft) O-SO 0.58 h 135 W/m -4.6 C -2.1 C 2.7 km/h (1 Bft)
21.12.2007 15:00 -1.6 C 82 % 1031.0 hPa 0.0 l/m 0.6 km/h (0 Bft) O 0.42 h 71 W/m -4.3 C -1.6 C 1.7 km/h (1 Bft)
21.12.2007 16:00 -2.0 C 83 % 1031.0 hPa 0.0 l/m 0.2 km/h (0 Bft) SO 0.10 h 17 W/m -4.5 C -2.0 C 0.8 km/h (0 Bft)
21.12.2007 17:00 -2.8 C 86 % 1031.2 hPa 0.0 l/m 0.4 km/h (0 Bft) SO 0.00 h 0 W/m -4.8 C -2.8 C 1.1 km/h (1 Bft)
21.12.2007 18:00 -2.8 C 88 % 1031.1 hPa 0.0 l/m 0.2 km/h (0 Bft) SO 0.00 h 0 W/m -4.5 C -2.8 C 0.5 km/h (0 Bft)
21.12.2007 19:00 -2.6 C 88 % 1031.1 hPa 0.0 l/m 0.2 km/h (0 Bft) SO 0.00 h 0 W/m -4.3 C -2.6 C 0.9 km/h (0 Bft)
21.12.2007 20:00 -2.7 C 88 % 1031.1 hPa 0.0 l/m 0.3 km/h (0 Bft) SO 0.00 h 0 W/m -4.4 C -2.7 C 1.2 km/h (1 Bft)
21.12.2007 21:00 -2.8 C 88 % 1031.0 hPa 0.0 l/m 0.3 km/h (0 Bft) SO 0.00 h 0 W/m -4.5 C -2.8 C 0.9 km/h (0 Bft)
21.12.2007 22:00 -2.9 C 89 % 1030.8 hPa 0.0 l/m 2.6 km/h (1 Bft) SO 0.00 h 0 W/m -4.5 C -3.3 C 4.3 km/h (1 Bft)
21.12.2007 23:00 -3.2 C 90 % 1030.9 hPa 0.0 l/m 2.9 km/h (1 Bft) O-SO 0.00 h 0 W/m -4.6 C -3.6 C 4.7 km/h (1 Bft)
22.12.2007 00:00 -3.3 C 90 % 1030.8 hPa 0.0 l/m 1.6 km/h (1 Bft) O-SO 0.00 h 0 W/m -4.6 C -3.3 C 3.1 km/h (1 Bft)
22.12.2007 01:00 -3.2 C 91 % 1030.6 hPa 0.0 l/m 1.8 km/h (1 Bft) SW 0.00 h 0 W/m -4.5 C -3.3 C 3.8 km/h (1 Bft)
22.12.2007 02:00 -3.6 C 91 % 1030.7 hPa 0.0 l/m 2.7 km/h (1 Bft) S-SO 0.00 h 0 W/m -4.8 C -4.0 C 5.3 km/h (1 Bft)
22.12.2007 03:00 -3.7 C 91 % 1030.6 hPa 0.0 l/m 3.4 km/h (1 Bft) S-SO 0.00 h 0 W/m -5.0 C -4.5 C 6.3 km/h (2 Bft)
22.12.2007 04:00 -3.7 C 90 % 1030.6 hPa 0.0 l/m 4.0 km/h (1 Bft) S-SO 0.00 h 0 W/m -5.2 C -4.6 C 6.7 km/h (2 Bft)
22.12.2007 05:00 -3.6 C 89 % 1030.6 hPa 0.0 l/m 2.6 km/h (1 Bft) S-SO 0.00 h 0 W/m -5.1 C -3.9 C 4.7 km/h (1 Bft)
22.12.2007 06:00 -3.5 C 89 % 1030.7 hPa 0.0 l/m 3.5 km/h (1 Bft) SO 0.00 h 0 W/m -5.0 C -4.3 C 5.5 km/h (1 Bft)
22.12.2007 07:00 -3.6 C 89 % 1031.0 hPa 0.0 l/m 3.8 km/h (1 Bft) SO 0.00 h 0 W/m -5.1 C -4.2 C 5.6 km/h (1 Bft)
22.12.2007 08:00 -3.6 C 89 % 1031.1 hPa 0.0 l/m 4.0 km/h (1 Bft) O-SO 0.00 h 12 W/m -5.2 C -4.6 C 6.0 km/h (2 Bft)
22.12.2007 09:00 -3.6 C 89 % 1031.2 hPa 0.0 l/m 3.6 km/h (1 Bft) O-SO 0.00 h 28 W/m -5.1 C -4.2 C 5.6 km/h (1 Bft)
22.12.2007 10:00 -3.4 C 89 % 1031.5 hPa 0.0 l/m 0.9 km/h (0 Bft) SO 0.00 h 51 W/m -5.0 C -3.5 C 2.0 km/h (1 Bft)
22.12.2007 11:00 -3.0 C 88 % 1031.3 hPa 0.0 l/m 0.9 km/h (0 Bft) SO 0.00 h 60 W/m -4.7 C -3.1 C 2.0 km/h (1 Bft)
22.12.2007 12:00 -2.5 C 86 % 1030.5 hPa 0.0 l/m 1.2 km/h (1 Bft) SO 0.12 h 129 W/m -4.6 C -2.6 C 2.7 km/h (1 Bft)
22.12.2007 13:00 -1.6 C 83 % 1029.7 hPa 0.0 l/m 0.8 km/h (0 Bft) S-SW 0.38 h 162 W/m -4.1 C -1.6 C 2.6 km/h (1 Bft)
22.12.2007 14:00 -1.0 C 80 % 1029.3 hPa 0.0 l/m 3.1 km/h (1 Bft) W-NW 0.58 h 131 W/m -4.0 C -1.4 C 5.1 km/h (1 Bft)
22.12.2007 15:00 -1.6 C 82 % 1029.4 hPa 0.0 l/m 0.7 km/h (0 Bft) W-NW 0.00 h 31 W/m -4.2 C -1.6 C 1.8 km/h (1 Bft)
22.12.2007 16:00 -2.2 C 84 % 1029.5 hPa 0.0 l/m 0.6 km/h (0 Bft) W-NW 0.02 h 12 W/m -4.6 C -2.2 C 1.5 km/h (1 Bft)
22.12.2007 17:00 -3.0 C 86 % 1029.6 hPa 0.0 l/m 1.2 km/h (1 Bft) W-NW 0.00 h 0 W/m -4.9 C -3.0 C 2.7 km/h (1 Bft)
22.12.2007 18:00 -3.5 C 88 % 1029.7 hPa 0.0 l/m 0.2 km/h (0 Bft) W-NW 0.00 h 0 W/m -5.1 C -3.5 C 1.1 km/h (1 Bft)
22.12.2007 19:00 -3.5 C 90 % 1030.0 hPa 0.0 l/m 0.6 km/h (0 Bft) W-NW 0.00 h 0 W/m -4.9 C -3.5 C 1.1 km/h (1 Bft)
22.12.2007 20:00 -3.3 C 90 % 1030.1 hPa 0.0 l/m 3.3 km/h (1 Bft) O-SO 0.00 h 0 W/m -4.7 C -4.1 C 4.9 km/h (1 Bft)
22.12.2007 21:00 -3.3 C 91 % 1030.4 hPa 0.0 l/m 2.0 km/h (1 Bft) O-SO 0.00 h 0 W/m -4.6 C -3.5 C 3.7 km/h (1 Bft)
22.12.2007 22:00 -3.3 C 92 % 1030.6 hPa 0.0 l/m 1.5 km/h (1 Bft) O-SO 0.00 h 0 W/m -4.4 C -3.5 C 3.3 km/h (1 Bft)
22.12.2007 23:00 -3.2 C 93 % 1030.6 hPa 0.0 l/m 1.0 km/h (0 Bft) O-SO 0.00 h 0 W/m -4.2 C -3.3 C 2.3 km/h (1 Bft)
23.12.2007 00:00 -3.3 C 93 % 1030.5 hPa 0.0 l/m 0.9 km/h (0 Bft) O-SO 0.00 h 0 W/m -4.3 C -3.3 C 2.1 km/h (1 Bft)
23.12.2007 01:00 -3.8 C 93 % 1030.6 hPa 0.0 l/m 0.4 km/h (0 Bft) O-SO 0.00 h 0 W/m -4.7 C -3.8 C 1.1 km/h (1 Bft)
23.12.2007 02:00 -3.7 C 93 % 1030.7 hPa 0.0 l/m 0.1 km/h (0 Bft) O-SO 0.00 h 0 W/m -4.6 C -3.7 C 0.5 km/h (0 Bft)
23.12.2007 03:00 -3.7 C 93 % 1031.1 hPa 0.0 l/m 0.1 km/h (0 Bft) O-SO 0.00 h 0 W/m -4.7 C -3.7 C 0.5 km/h (0 Bft)
23.12.2007 04:00 -3.7 C 93 % 1031.2 hPa 0.0 l/m 1.4 km/h (1 Bft) O-SO 0.00 h 0 W/m -4.7 C -3.8 C 2.9 km/h (1 Bft)
23.12.2007 05:00 -4.0 C 93 % 1031.3 hPa 0.0 l/m 0.2 km/h (0 Bft) W-NW 0.00 h 0 W/m -5.0 C -4.0 C 0.6 km/h (0 Bft)
23.12.2007 06:00 -4.1 C 93 % 1031.4 hPa 0.0 l/m 1.1 km/h (1 Bft) W-NW 0.00 h 0 W/m -5.0 C -4.1 C 2.1 km/h (1 Bft)
23.12.2007 07:00 -4.3 C 93 % 1031.8 hPa 0.0 l/m 0.3 km/h (0 Bft) W-NW 0.00 h 0 W/m -5.3 C -4.3 C 1.7 km/h (1 Bft)
23.12.2007 08:00 -4.5 C 93 % 1032.1 hPa 0.0 l/m 0.2 km/h (0 Bft) W-NW 0.00 h 8 W/m -5.4 C -4.5 C 1.1 km/h (0 Bft)
23.12.2007 09:00 -4.4 C 93 % 1032.5 hPa 0.0 l/m 0.7 km/h (0 Bft) W-NW 0.00 h 21 W/m -5.4 C -4.4 C 1.7 km/h (1 Bft)
23.12.2007 10:00 -4.4 C 92 % 1032.9 hPa 0.0 l/m 1.3 km/h (1 Bft) W-NW 0.00 h 43 W/m -5.5 C -4.4 C 2.7 km/h (1 Bft)
23.12.2007 11:00 -3.9 C 92 % 1032.8 hPa 0.0 l/m 1.1 km/h (1 Bft) W-NW 0.00 h 67 W/m -5.0 C -3.9 C 2.5 km/h (1 Bft)
23.12.2007 12:00 -3.4 C 90 % 1032.2 hPa 0.0 l/m 0.7 km/h (0 Bft) W-NW 0.00 h 93 W/m -4.8 C -3.4 C 2.0 km/h (1 Bft)
23.12.2007 13:00 -3.1 C 88 % 1031.6 hPa 0.0 l/m 1.0 km/h (0 Bft) W-NW 0.00 h 99 W/m -4.8 C -3.2 C 2.5 km/h (1 Bft)
23.12.2007 14:00 -2.7 C 88 % 1031.1 hPa 0.0 l/m 1.2 km/h (1 Bft) W 0.00 h 77 W/m -4.4 C -2.8 C 2.7 km/h (1 Bft)
23.12.2007 15:00 -2.4 C 88 % 1030.8 hPa 0.0 l/m 0.6 km/h (0 Bft) SO 0.00 h 34 W/m -4.1 C -2.4 C 1.5 km/h (1 Bft)
23.12.2007 16:00 -2.7 C 88 % 1030.7 hPa 0.0 l/m 0.6 km/h (0 Bft) O-SO 0.00 h 8 W/m -4.4 C -2.7 C 1.8 km/h (1 Bft)
23.12.2007 17:00 -3.4 C 89 % 1031.1 hPa 0.0 l/m 1.3 km/h (1 Bft) O-SO 0.00 h 0 W/m -5.0 C -3.4 C 3.0 km/h (1 Bft)
23.12.2007 18:00 -3.5 C 91 % 1031.3 hPa 0.0 l/m 1.6 km/h (1 Bft) O-SO 0.00 h 0 W/m -4.8 C -3.6 C 3.2 km/h (1 Bft)
23.12.2007 19:00 -3.7 C 91 % 1031.6 hPa 0.0 l/m 1.5 km/h (1 Bft) O-NO 0.00 h 0 W/m -5.0 C -3.9 C 3.3 km/h (1 Bft)
23.12.2007 20:00 -4.1 C 92 % 1031.9 hPa 0.0 l/m 0.4 km/h (0 Bft) O-SO 0.00 h 0 W/m -5.2 C -4.1 C 1.7 km/h (1 Bft)
23.12.2007 21:00 -4.2 C 92 % 1031.9 hPa 0.0 l/m 0.6 km/h (0 Bft) O-SO 0.00 h 0 W/m -5.3 C -4.3 C 2.3 km/h (1 Bft)
23.12.2007 22:00 -4.5 C 92 % 1031.9 hPa 0.0 l/m 1.0 km/h (0 Bft) O-NO 0.00 h 0 W/m -5.6 C -4.6 C 2.3 km/h (1 Bft)
23.12.2007 23:00 -4.7 C 92 % 1031.8 hPa 0.0 l/m 0.6 km/h (0 Bft) O 0.00 h 0 W/m -5.8 C -4.7 C 1.8 km/h (1 Bft)
Min-Datum _ 20.12.07 17.12.07 17.12.07 - 17.12.07 - - - 20.12.07 19.12.07 17.12.07
_ Min-Zeit 01:00 15:26 13:15 - 02:04 - - - 00:23 21:52 19:45
Minimum _ -6.8 C 63 % 1028.5 hPa - 0.0 km/h (0 Bft) - - - -8.1 C -8.2 C 0.0 km/h (0 Bft)
Max-Datum _ 17.12.07 22.12.07 19.12.07 17.12.07 17.12.07 - 17.12.07 22.12.07 22.12.07 17.12.07 17.12.07
_ Max-Zeit 14:46 22:27 10:45 00:00 03:03 - 15:43 13:52 13:44 14:57 09:12
Maximum _ -0.1 C 96 % 1040.8 hPa 0.0 l/m 19.6 km/h
O-SO (3 Bft)
- 0.02 h 234 W/m -3.4 C -0.1 C 33.0 km/h
SO (5 Bft)
Durchschnitt _ -2.9 C 83 % 1033.6 hPa #0.0 l/m 2.3 km/h (1 Bft) O-SO #3:39 h 52 W/m -5.5 C -3.3 C 4.5 km/h (1 Bft)
© Kaiko 2007